Time;durP1;ratioP1;P1;durP2;ratioP2;P2;SDS_P1;SDS_P2;PMS_P1;PMS_P2;Temp;Humidity;BMP_temperature;BMP_pressure;BME280_temperature;BME280_humidity;BME280_pressure;Samples;Min_cycle;Max_cycle;Signal;HPM_P1;HPM_P2
2022/09/08 00:01:48;;;;;;;3.13;2.90;;;19.90;99.90;;;;;;5033582;28;20826;-71
2022/09/08 00:04:15;;;;;;;3.57;2.57;;;19.90;99.90;;;;;;5034457;28;20514;-71
2022/09/08 00:06:44;;;;;;;2.90;2.70;;;19.90;99.90;;;;;;5034465;28;20868;-71
2022/09/08 00:09:11;;;;;;;3.10;2.80;;;20.00;99.90;;;;;;5033742;28;20537;-71
2022/09/08 00:11:41;;;;;;;3.23;2.60;;;20.00;99.90;;;;;;5033705;28;20609;-71
2022/09/08 00:14:08;;;;;;;3.60;2.80;;;20.00;99.90;;;;;;5033728;28;20459;-71
2022/09/08 00:16:39;;;;;;;2.80;2.60;;;20.10;99.90;;;;;;5034046;28;20451;-71
2022/09/08 00:19:06;;;;;;;2.80;2.57;;;20.10;99.90;;;;;;5033956;28;20602;-71
2022/09/08 00:21:33;;;;;;;2.53;2.30;;;20.10;99.90;;;;;;5032539;28;20564;-71
2022/09/08 00:24:00;;;;;;;5.47;5.07;;;20.10;99.90;;;;;;5033420;28;20494;-71
2022/09/08 00:26:27;;;;;;;5.07;4.67;;;20.10;99.90;;;;;;5034375;28;20535;-71
2022/09/08 00:28:55;;;;;;;3.67;3.37;;;20.00;99.90;;;;;;5026226;28;20614;-71
2022/09/08 00:31:22;;;;;;;2.93;2.40;;;20.20;99.90;;;;;;5032647;28;20477;-71
2022/09/08 00:33:49;;;;;;;3.40;2.57;;;20.20;99.90;;;;;;5031686;28;20523;-71
2022/09/08 00:36:18;;;;;;;2.70;2.50;;;20.20;99.90;;;;;;5033124;28;20520;-71
2022/09/08 00:38:51;;;;;;;3.20;2.90;;;20.30;99.90;;;;;;5032005;28;20470;-71
2022/09/08 00:41:19;;;;;;;3.07;2.70;;;20.30;99.90;;;;;;5032461;28;21013;-71
2022/09/08 00:43:49;;;;;;;3.13;2.80;;;20.30;99.90;;;;;;5032296;28;20461;-71
2022/09/08 00:46:24;;;;;;;2.97;2.67;;;20.30;99.90;;;;;;5034269;28;20582;-71
2022/09/08 00:48:58;;;;;;;4.10;2.70;;;20.20;99.90;;;;;;5033222;28;20559;-71
2022/09/08 00:51:27;;;;;;;2.60;2.40;;;20.20;99.90;;;;;;5032955;28;20473;-71
2022/09/08 00:53:58;;;;;;;2.97;2.77;;;20.20;99.90;;;;;;5030733;28;20511;-71
2022/09/08 00:56:28;;;;;;;2.63;2.43;;;20.20;99.90;;;;;;5034326;28;20777;-71
2022/09/08 00:58:57;;;;;;;2.80;2.50;;;20.20;99.90;;;;;;5033073;28;20554;-71
2022/09/08 01:01:25;;;;;;;3.07;2.80;;;20.10;99.90;;;;;;5032852;28;20611;-71
2022/09/08 01:03:52;;;;;;;3.10;2.80;;;20.10;99.90;;;;;;5031126;28;20883;-72
2022/09/08 01:14:55;;;;;;;3.87;3.50;;;19.50;99.90;;;;;;5029893;28;20448;-73
2022/09/08 01:17:27;;;;;;;6.10;3.97;;;19.40;99.90;;;;;;5028050;28;20505;-72
2022/09/08 01:19:56;;;;;;;4.43;3.90;;;19.40;99.90;;;;;;5031668;28;21073;-72
2022/09/08 01:22:42;;;;;;;3.93;3.63;;;19.10;99.90;;;;;;5032654;28;20444;-72
2022/09/08 01:25:25;;;;;;;4.20;3.90;;;19.10;99.90;;;;;;5032150;28;20465;-72
2022/09/08 01:28:01;;;;;;;6.17;4.60;;;19.10;99.90;;;;;;5032511;28;20515;-72
2022/09/08 01:30:28;;;;;;;4.43;4.03;;;19.00;99.90;;;;;;5031030;28;20566;-73
2022/09/08 01:32:55;;;;;;;5.10;4.60;;;19.00;99.90;;;;;;5032002;28;20515;-73
2022/09/08 01:35:30;;;;;;;4.90;4.50;;;19.20;99.90;;;;;;5033262;28;20460;-73
2022/09/08 01:37:57;;;;;;;4.90;4.60;;;18.90;99.90;;;;;;5031881;28;20458;-73
2022/09/08 01:40:24;;;;;;;5.23;4.83;;;18.90;99.90;;;;;;5031259;28;20484;-73
2022/09/08 01:42:51;;;;;;;4.60;4.30;;;18.80;99.90;;;;;;5031447;28;20993;-73
2022/09/08 01:45:20;;;;;;;5.00;4.70;;;18.80;99.90;;;;;;5032128;28;20491;-73
2022/09/08 01:47:47;;;;;;;5.80;4.23;;;18.70;99.90;;;;;;5032322;28;20464;-73
2022/09/08 01:50:14;;;;;;;4.50;4.10;;;18.80;99.90;;;;;;5030103;28;20566;-73
2022/09/08 01:52:41;;;;;;;5.17;4.63;;;18.70;99.90;;;;;;5030570;28;20475;-73
2022/09/08 01:55:08;;;;;;;4.50;4.20;;;18.70;99.90;;;;;;5031115;28;20470;-73
2022/09/08 01:57:35;;;;;;;4.70;4.40;;;18.80;99.90;;;;;;5032772;28;20807;-73
2022/09/08 02:00:03;;;;;;;5.00;4.70;;;18.80;99.90;;;;;;5028866;28;21247;-73
2022/09/08 02:02:31;;;;;;;6.33;4.20;;;18.80;99.90;;;;;;5030618;28;20485;-73
2022/09/08 02:04:58;;;;;;;4.60;4.23;;;18.80;99.90;;;;;;5031798;28;20452;-73
2022/09/08 02:07:25;;;;;;;5.40;5.00;;;18.80;99.90;;;;;;5031907;28;20490;-73
2022/09/08 02:09:53;;;;;;;4.70;4.30;;;18.80;99.90;;;;;;5028781;28;20575;-73
2022/09/08 02:12:21;;;;;;;5.80;4.10;;;18.70;99.90;;;;;;5031173;28;20466;-73
2022/09/08 02:14:48;;;;;;;4.47;4.07;;;18.70;99.90;;;;;;5030618;28;20530;-73
2022/09/08 02:17:15;;;;;;;4.80;3.80;;;18.60;99.90;;;;;;5022711;28;20450;-73
2022/09/08 02:19:43;;;;;;;5.00;4.50;;;18.60;99.90;;;;;;5028739;28;20475;-72
2022/09/08 02:22:10;;;;;;;4.97;4.67;;;18.50;99.90;;;;;;5029531;28;20514;-73
2022/09/08 02:24:38;;;;;;;5.57;5.07;;;18.50;99.90;;;;;;5028984;28;20952;-72
2022/09/08 02:27:05;;;;;;;4.33;3.93;;;18.40;99.90;;;;;;5031624;28;20452;-72
2022/09/08 02:29:32;;;;;;;4.97;4.40;;;18.30;99.90;;;;;;5029512;28;20511;-72
2022/09/08 02:31:59;;;;;;;4.53;4.13;;;18.30;99.90;;;;;;5030918;28;20456;-72
2022/09/08 02:34:26;;;;;;;5.30;4.80;;;18.30;99.90;;;;;;5029423;28;20506;-73
2022/09/08 02:36:55;;;;;;;5.70;5.20;;;18.20;99.90;;;;;;5030775;28;20544;-72
2022/09/08 02:39:21;;;;;;;4.80;4.50;;;18.20;99.90;;;;;;5027930;28;20480;-73
2022/09/08 02:41:48;;;;;;;6.30;5.70;;;18.20;99.90;;;;;;5028993;28;20467;-72
2022/09/08 02:44:16;;;;;;;6.10;5.30;;;18.20;99.90;;;;;;5029948;28;21023;-72
2022/09/08 02:46:43;;;;;;;5.97;5.47;;;18.10;99.90;;;;;;5030938;28;20536;-72
2022/09/08 02:49:11;;;;;;;5.93;5.43;;;18.20;99.90;;;;;;5028440;28;20545;-72
2022/09/08 02:51:38;;;;;;;4.83;4.53;;;18.10;99.90;;;;;;5029910;28;20460;-72
2022/09/08 02:54:07;;;;;;;5.37;4.00;;;18.10;99.90;;;;;;5028166;28;20488;-73
2022/09/08 02:56:34;;;;;;;3.83;3.53;;;18.10;99.90;;;;;;5030817;28;20460;-72
2022/09/08 02:59:01;;;;;;;3.50;3.10;;;18.10;99.90;;;;;;5029089;28;20480;-72
2022/09/08 03:01:28;;;;;;;3.27;2.70;;;18.10;99.90;;;;;;5031224;28;20935;-72
2022/09/08 03:03:55;;;;;;;3.17;2.80;;;18.10;99.90;;;;;;5028042;28;20480;-72
2022/09/08 03:06:22;;;;;;;3.13;2.30;;;18.20;99.90;;;;;;5028849;28;20554;-73
2022/09/08 03:08:50;;;;;;;2.07;1.97;;;18.20;99.90;;;;;;5027982;28;20458;-72
2022/09/08 03:11:18;;;;;;;2.97;2.27;;;18.30;99.90;;;;;;5026755;28;20541;-73
2022/09/08 03:13:45;;;;;;;2.10;1.90;;;18.30;99.90;;;;;;5028547;28;20583;-72
2022/09/08 03:16:13;;;;;;;1.80;1.70;;;18.30;99.90;;;;;;5031407;28;20456;-72
2022/09/08 03:18:40;;;;;;;2.30;2.10;;;18.40;99.90;;;;;;5030255;28;20458;-72
2022/09/08 03:21:10;;;;;;;2.07;1.97;;;18.50;99.90;;;;;;5021991;28;20857;-72
2022/09/08 03:23:38;;;;;;;2.17;1.47;;;18.60;99.90;;;;;;5030441;28;20821;-72
2022/09/08 03:26:07;;;;;;;2.60;1.90;;;18.40;99.90;;;;;;5031585;28;20506;-72
2022/09/08 03:28:35;;;;;;;2.03;1.83;;;18.40;99.90;;;;;;5030078;28;20831;-72
2022/09/08 03:31:07;;;;;;;1.80;1.70;;;18.50;99.90;;;;;;5024710;28;20462;-72
2022/09/08 03:33:34;;;;;;;2.00;1.90;;;18.30;99.90;;;;;;5027619;28;20494;-72
2022/09/08 03:36:02;;;;;;;2.07;1.43;;;18.30;99.90;;;;;;5011924;28;20448;-72
2022/09/08 03:38:29;;;;;;;2.13;1.93;;;18.20;99.90;;;;;;5022567;28;20460;-72
2022/09/08 03:40:56;;;;;;;1.63;1.50;;;18.20;99.90;;;;;;5030637;28;20499;-73
2022/09/08 03:43:23;;;;;;;2.00;1.73;;;18.20;99.90;;;;;;5030502;28;20555;-72
2022/09/08 03:45:52;;;;;;;1.53;1.40;;;18.10;99.90;;;;;;5033658;28;20966;-72
2022/09/08 03:48:28;;;;;;;1.67;1.40;;;18.10;99.90;;;;;;5030913;28;20496;-72
2022/09/08 03:50:55;;;;;;;1.63;1.53;;;18.10;99.90;;;;;;5031302;28;20444;-72
2022/09/08 03:53:22;;;;;;;1.40;1.30;;;18.10;99.90;;;;;;5032557;28;20518;-73
2022/09/08 03:55:49;;;;;;;1.80;1.33;;;18.10;99.90;;;;;;5026906;28;20535;-73
2022/09/08 03:58:16;;;;;;;1.80;1.40;;;18.10;99.90;;;;;;5017853;28;20457;-72
2022/09/08 04:00:43;;;;;;;1.43;1.33;;;18.00;99.90;;;;;;5030892;28;20508;-73
2022/09/08 04:03:12;;;;;;;1.30;1.20;;;17.90;99.90;;;;;;5030361;28;20873;-73
2022/09/08 04:05:39;;;;;;;1.50;1.40;;;17.80;99.90;;;;;;5031463;28;20440;-73
2022/09/08 04:08:07;;;;;;;1.70;1.60;;;17.80;99.90;;;;;;5029101;28;20495;-73
2022/09/08 04:10:34;;;;;;;1.50;1.40;;;17.70;99.90;;;;;;5029141;28;20472;-73
2022/09/08 04:13:01;;;;;;;2.43;1.40;;;17.70;99.90;;;;;;5028756;28;20530;-73
2022/09/08 04:15:28;;;;;;;1.40;1.27;;;17.70;99.90;;;;;;5028701;28;20464;-73
2022/09/08 04:17:55;;;;;;;1.47;1.27;;;17.70;99.90;;;;;;5026242;28;21045;-73
2022/09/08 04:20:24;;;;;;;2.10;1.90;;;17.60;99.90;;;;;;5025130;28;20475;-73
2022/09/08 04:22:51;;;;;;;1.70;1.57;;;17.60;99.90;;;;;;5027552;28;20452;-73
2022/09/08 04:25:19;;;;;;;1.60;1.40;;;17.50;99.90;;;;;;5030417;28;20451;-73
2022/09/08 04:27:46;;;;;;;1.50;1.40;;;17.50;99.90;;;;;;5028467;28;20888;-72
2022/09/08 04:30:14;;;;;;;1.33;1.20;;;17.40;99.90;;;;;;5030519;28;20543;-72
2022/09/08 04:32:41;;;;;;;2.13;1.40;;;17.30;99.90;;;;;;5030672;28;20795;-72
2022/09/08 04:35:09;;;;;;;1.93;1.50;;;17.40;99.90;;;;;;5029974;28;20557;-72
2022/09/08 04:37:38;;;;;;;1.70;1.60;;;17.30;99.90;;;;;;5030843;28;20452;-73
2022/09/08 04:40:07;;;;;;;2.70;1.73;;;17.30;99.90;;;;;;5032760;28;20479;-72
2022/09/08 04:42:35;;;;;;;2.80;1.70;;;17.30;99.90;;;;;;5033186;28;20452;-71
2022/09/08 04:45:03;;;;;;;1.63;1.33;;;17.20;99.90;;;;;;5031695;28;20531;-75
2022/09/08 04:47:30;;;;;;;3.00;1.70;;;17.20;99.90;;;;;;5027120;28;20484;-72
2022/09/08 04:49:57;;;;;;;2.03;1.60;;;17.10;99.90;;;;;;5026604;28;20534;-70
2022/09/08 04:52:25;;;;;;;1.70;1.60;;;17.10;99.90;;;;;;5024733;28;20479;-70
2022/09/08 04:54:53;;;;;;;2.20;1.73;;;17.10;99.90;;;;;;5028410;28;20480;-70
2022/09/08 04:57:20;;;;;;;2.10;1.90;;;17.10;99.90;;;;;;5030956;28;20861;-70
2022/09/08 04:59:48;;;;;;;2.20;2.00;;;17.10;99.90;;;;;;5031350;28;20573;-70
2022/09/08 05:02:15;;;;;;;2.03;1.63;;;17.10;99.90;;;;;;5030397;28;20486;-70
2022/09/08 05:04:42;;;;;;;1.77;1.50;;;17.10;99.90;;;;;;5027401;28;20954;-70
2022/09/08 05:07:09;;;;;;;1.60;1.50;;;17.10;99.90;;;;;;5030298;28;20460;-70
2022/09/08 05:09:36;;;;;;;2.40;2.20;;;17.20;99.90;;;;;;5028642;28;20523;-70
2022/09/08 05:12:04;;;;;;;2.17;2.00;;;17.10;99.90;;;;;;5028815;28;20456;-69
2022/09/08 05:14:31;;;;;;;1.70;1.33;;;17.10;99.90;;;;;;5031124;28;20490;-68
2022/09/08 05:16:58;;;;;;;1.70;1.53;;;17.10;99.90;;;;;;5028841;28;20463;-69
2022/09/08 05:19:26;;;;;;;2.53;1.60;;;17.10;99.90;;;;;;5030832;28;20512;-70
2022/09/08 05:21:53;;;;;;;1.93;1.60;;;17.10;99.90;;;;;;5029833;28;20556;-75
2022/09/08 05:24:20;;;;;;;2.53;1.90;;;17.10;99.90;;;;;;5029348;28;20551;-74
2022/09/08 05:26:47;;;;;;;2.33;1.73;;;17.10;99.90;;;;;;5019287;28;20555;-74
2022/09/08 05:29:16;;;;;;;2.47;1.97;;;17.10;99.90;;;;;;5018898;28;20563;-74
2022/09/08 05:31:43;;;;;;;2.10;1.90;;;17.00;99.90;;;;;;5026420;28;20452;-75
2022/09/08 05:34:10;;;;;;;2.30;1.73;;;17.00;99.90;;;;;;5020857;28;20566;-74
2022/09/08 05:36:37;;;;;;;2.17;1.97;;;16.90;99.90;;;;;;5028505;28;20489;-74
2022/09/08 05:39:06;;;;;;;3.33;1.67;;;16.90;99.90;;;;;;5026035;28;20483;-74
2022/09/08 05:41:34;;;;;;;2.50;2.27;;;16.90;99.90;;;;;;5024999;28;20464;-74
2022/09/08 05:44:01;;;;;;;2.37;1.93;;;17.10;99.90;;;;;;5026600;28;20460;-74
2022/09/08 05:46:30;;;;;;;2.27;2.07;;;16.90;99.90;;;;;;5029320;28;20476;-74
2022/09/08 05:48:59;;;;;;;2.37;2.17;;;16.90;99.90;;;;;;5025625;28;20665;-74
2022/09/08 05:51:26;;;;;;;2.70;2.10;;;16.90;99.90;;;;;;5028221;28;20974;-74
2022/09/08 05:53:53;;;;;;;1.73;1.63;;;16.90;99.90;;;;;;5026665;28;20480;-73
2022/09/08 05:56:20;;;;;;;1.77;1.67;;;16.90;99.90;;;;;;5023875;28;21041;-74
2022/09/08 05:58:52;;;;;;;1.60;1.50;;;16.90;99.90;;;;;;5023892;28;20550;-74
2022/09/08 06:01:19;;;;;;;3.20;1.70;;;16.90;99.90;;;;;;5026394;28;20459;-74
2022/09/08 06:03:51;;;;;;;2.40;1.70;;;16.80;99.90;;;;;;5025448;28;21848;-75
2022/09/08 06:06:19;;;;;;;2.70;2.00;;;16.90;99.90;;;;;;5028584;28;20464;-75
2022/09/08 06:08:46;;;;;;;2.97;1.90;;;16.90;99.90;;;;;;5030259;28;20506;-75
2022/09/08 06:11:13;;;;;;;2.50;2.00;;;16.90;99.90;;;;;;5024235;28;20580;-76
2022/09/08 06:13:41;;;;;;;2.13;2.00;;;16.90;99.90;;;;;;5023056;28;20468;-75
2022/09/08 06:16:11;;;;;;;2.90;2.50;;;17.00;99.90;;;;;;5025627;28;20461;-75
2022/09/08 06:18:40;;;;;;;2.23;2.00;;;17.20;99.90;;;;;;5019363;28;20500;-76
2022/09/08 06:21:10;;;;;;;4.23;1.80;;;17.00;99.90;;;;;;5027139;28;20475;-75
2022/09/08 06:23:38;;;;;;;3.13;1.53;;;17.00;99.90;;;;;;5029602;28;20547;-75
2022/09/08 06:26:27;;;;;;;2.20;1.63;;;17.00;99.90;;;;;;5029530;28;20537;-75
2022/09/08 06:28:59;;;;;;;1.40;1.30;;;16.90;99.90;;;;;;5029768;28;20486;-75
2022/09/08 06:31:30;;;;;;;2.80;1.60;;;16.90;99.90;;;;;;5027861;28;20468;-75
2022/09/08 06:34:02;;;;;;;2.13;1.20;;;16.90;99.90;;;;;;5019888;28;20486;-75
2022/09/08 06:36:40;;;;;;;1.10;1.00;;;16.80;99.90;;;;;;5023795;28;20556;-75
2022/09/08 06:39:16;;;;;;;1.83;1.20;;;16.80;99.90;;;;;;5022667;28;20992;-75
2022/09/08 06:41:47;;;;;;;1.30;1.10;;;16.80;99.90;;;;;;5025836;28;20471;-75
2022/09/08 06:44:19;;;;;;;1.60;1.00;;;16.80;99.90;;;;;;5026037;28;20488;-75
2022/09/08 06:46:46;;;;;;;1.40;0.90;;;16.80;99.90;;;;;;5029321;28;20510;-75
2022/09/08 06:49:13;;;;;;;1.20;1.10;;;16.80;99.90;;;;;;5028346;28;20468;-75
2022/09/08 06:51:47;;;;;;;1.60;1.23;;;16.80;99.90;;;;;;5026851;28;20586;-75
2022/09/08 06:54:29;;;;;;;1.07;0.97;;;16.80;99.90;;;;;;5020455;28;20519;-74
2022/09/08 06:57:05;;;;;;;1.60;1.03;;;16.90;99.90;;;;;;5025961;28;20501;-75
2022/09/08 06:59:51;;;;;;;1.60;1.50;;;17.10;99.90;;;;;;5021199;28;20507;-75
2022/09/08 07:02:47;;;;;;;2.73;1.10;;;16.90;99.90;;;;;;5020590;28;20496;-75
2022/09/08 07:05:28;;;;;;;1.33;1.10;;;17.00;99.90;;;;;;5009985;28;20467;-75
2022/09/08 07:08:02;;;;;;;1.27;1.10;;;17.00;99.90;;;;;;5027583;28;21022;-75
2022/09/08 07:10:33;;;;;;;1.30;1.00;;;17.10;99.90;;;;;;5020717;28;20444;-75
2022/09/08 07:13:10;;;;;;;1.10;1.00;;;17.10;99.90;;;;;;5023276;28;20461;-75
2022/09/08 07:15:56;;;;;;;3.00;1.20;;;17.10;99.90;;;;;;5023578;28;20496;-75
2022/09/08 07:18:28;;;;;;;2.57;1.33;;;17.10;99.90;;;;;;5026350;28;20488;-74
2022/09/08 07:21:06;;;;;;;2.20;1.60;;;17.10;99.90;;;;;;5025109;28;20550;-75
2022/09/08 07:23:38;;;;;;;1.57;1.43;;;17.20;99.90;;;;;;5025210;28;20564;-75
2022/09/08 07:26:09;;;;;;;2.03;1.30;;;17.20;99.90;;;;;;5019406;28;20478;-75
2022/09/08 07:28:43;;;;;;;1.20;1.10;;;17.20;99.90;;;;;;5028943;28;20487;-75
2022/09/08 07:31:18;;;;;;;1.20;1.10;;;17.20;99.90;;;;;;5024577;28;20460;-75
2022/09/08 07:33:49;;;;;;;1.03;0.93;;;17.20;99.90;;;;;;5021727;28;20550;-75
2022/09/08 07:36:24;;;;;;;1.33;1.17;;;17.20;99.90;;;;;;5022219;28;20523;-75
2022/09/08 07:38:54;;;;;;;1.70;1.17;;;17.30;99.90;;;;;;5025074;28;20566;-75
2022/09/08 07:41:25;;;;;;;1.30;1.10;;;17.30;99.90;;;;;;5024656;28;20989;-75
2022/09/08 07:43:57;;;;;;;1.10;1.00;;;17.40;99.90;;;;;;5026761;28;20543;-75
2022/09/08 07:46:48;;;;;;;1.43;1.33;;;17.50;99.90;;;;;;5022378;28;20461;-75
2022/09/08 07:49:25;;;;;;;1.50;1.20;;;17.50;99.90;;;;;;5025341;28;20482;-75
2022/09/08 07:52:00;;;;;;;1.30;1.20;;;17.60;99.90;;;;;;5022293;28;20463;-75
2022/09/08 07:54:42;;;;;;;1.30;1.20;;;17.60;99.90;;;;;;5025566;28;20479;-77
2022/09/08 07:57:15;;;;;;;1.10;0.87;;;17.80;99.90;;;;;;5021668;28;20540;-74
2022/09/08 07:59:49;;;;;;;1.10;1.00;;;18.20;99.90;;;;;;5022410;28;20959;-75
2022/09/08 08:02:38;;;;;;;1.77;0.80;;;18.70;99.90;;;;;;5015255;28;20998;-75
2022/09/08 08:05:20;;;;;;;1.00;0.80;;;19.40;99.90;;;;;;5026627;28;20471;-75
2022/09/08 08:08:12;;;;;;;1.87;1.10;;;20.30;99.90;;;;;;5018137;28;20474;-74
2022/09/08 08:10:49;;;;;;;0.80;0.77;;;20.60;99.90;;;;;;5023782;28;20468;-74
2022/09/08 08:13:27;;;;;;;2.00;0.77;;;20.70;99.90;;;;;;5027900;28;20482;-74
2022/09/08 08:16:04;;;;;;;1.17;0.90;;;20.80;99.90;;;;;;5028376;28;21094;-74
2022/09/08 08:18:42;;;;;;;1.00;0.80;;;20.50;99.90;;;;;;5028088;28;20478;-74
2022/09/08 08:21:14;;;;;;;0.80;0.70;;;20.10;99.90;;;;;;5032181;28;20448;-74
2022/09/08 08:24:07;;;;;;;1.87;1.17;;;20.00;99.90;;;;;;5026542;28;20515;-74
2022/09/08 08:26:44;;;;;;;1.47;0.90;;;20.40;99.90;;;;;;5025286;28;20494;-74
2022/09/08 08:29:36;;;;;;;0.93;0.70;;;20.90;99.90;;;;;;5025888;28;20898;-74
2022/09/08 08:32:10;;;;;;;0.90;0.80;;;20.90;99.90;;;;;;5023336;28;20984;-73
2022/09/08 08:34:43;;;;;;;0.90;0.77;;;20.70;99.90;;;;;;5026399;28;20562;-74
2022/09/08 08:37:17;;;;;;;0.87;0.70;;;20.80;99.90;;;;;;5025566;28;20657;-74
2022/09/08 08:39:47;;;;;;;1.47;0.80;;;20.80;99.90;;;;;;5023588;28;20502;-74
2022/09/08 08:42:42;;;;;;;1.10;0.90;;;20.90;99.90;;;;;;5022939;28;20582;-74
2022/09/08 08:45:26;;;;;;;1.17;0.90;;;21.20;99.90;;;;;;5023763;28;20970;-74
2022/09/08 08:48:22;;;;;;;1.23;0.80;;;21.60;99.90;;;;;;5024426;28;20553;-74
2022/09/08 08:51:08;;;;;;;1.27;0.63;;;22.00;99.90;;;;;;5025991;28;20467;-74
2022/09/08 08:53:49;;;;;;;1.40;0.90;;;22.60;99.90;;;;;;5023557;28;20559;-74
2022/09/08 08:56:24;;;;;;;0.80;0.70;;;22.70;99.90;;;;;;5031667;28;20591;-74
2022/09/08 08:59:10;;;;;;;0.90;0.80;;;22.90;99.90;;;;;;5029025;28;20574;-75
2022/09/08 09:01:51;;;;;;;1.20;0.70;;;23.30;99.90;;;;;;5020692;28;20535;-74
2022/09/08 09:04:48;;;;;;;1.03;0.77;;;23.40;99.90;;;;;;5022641;28;20538;-74
2022/09/08 09:07:54;;;;;;;2.37;0.80;;;23.10;99.90;;;;;;5025243;28;20530;-74
2022/09/08 09:10:50;;;;;;;1.00;0.80;;;22.80;99.90;;;;;;5021763;28;20464;-74
2022/09/08 09:13:34;;;;;;;1.00;0.80;;;22.50;99.90;;;;;;5014152;28;20570;-74
2022/09/08 09:16:35;;;;;;;1.67;1.13;;;22.10;99.90;;;;;;5021397;28;20633;-74
2022/09/08 09:19:38;;;;;;;1.53;0.70;;;22.00;99.90;;;;;;5021647;28;20483;-75
2022/09/08 09:22:16;;;;;;;2.23;1.43;;;22.10;99.90;;;;;;5020422;28;20750;-74
2022/09/08 09:25:02;;;;;;;1.07;0.80;;;22.60;99.90;;;;;;5021806;28;20770;-74
2022/09/08 09:27:41;;;;;;;2.70;1.10;;;22.90;99.90;;;;;;5027683;28;20483;-74
2022/09/08 09:30:20;;;;;;;1.00;0.83;;;22.90;99.90;;;;;;5028571;28;21232;-74
2022/09/08 09:33:19;;;;;;;2.13;0.90;;;22.80;99.90;;;;;;5018022;28;20460;-74
2022/09/08 09:36:05;;;;;;;1.80;1.10;;;22.50;99.90;;;;;;5024466;28;20567;-74
2022/09/08 09:39:00;;;;;;;2.27;1.00;;;22.60;99.90;;;;;;5028932;28;20482;-75
2022/09/08 09:41:51;;;;;;;1.17;0.70;;;22.60;99.90;;;;;;5015660;28;20518;-74
2022/09/08 09:44:43;;;;;;;1.00;0.87;;;23.10;99.90;;;;;;5026170;28;20464;-73
2022/09/08 09:47:30;;;;;;;1.20;0.70;;;23.90;99.90;;;;;;5026068;28;20482;-75
2022/09/08 09:50:42;;;;;;;2.10;1.10;;;24.70;99.90;;;;;;5026281;28;20549;-74
2022/09/08 09:53:28;;;;;;;2.50;0.90;;;25.40;99.90;;;;;;5026817;28;20464;-73
2022/09/08 09:56:19;;;;;;;1.27;0.80;;;25.30;99.90;;;;;;5028150;28;20566;-74
2022/09/08 09:59:22;;;;;;;0.90;0.80;;;25.30;99.90;;;;;;5026944;28;20487;-74
2022/09/08 10:02:05;;;;;;;2.50;1.00;;;25.70;99.90;;;;;;5021348;28;20447;-74
2022/09/08 10:05:09;;;;;;;1.23;0.80;;;26.10;99.90;;;;;;5025954;28;21037;-74
2022/09/08 10:08:09;;;;;;;1.40;0.70;;;26.60;99.90;;;;;;5025563;28;20556;-74
2022/09/08 10:11:06;;;;;;;2.40;1.00;;;26.90;99.90;;;;;;5023757;28;20456;-74
2022/09/08 10:14:09;;;;;;;2.87;0.90;;;27.10;99.90;;;;;;5028257;28;20550;-74
2022/09/08 10:17:20;;;;;;;1.40;0.80;;;27.30;99.90;;;;;;5021997;28;20583;-75
2022/09/08 10:20:29;;;;;;;1.10;1.00;;;27.40;99.50;;;;;;4980889;28;20457;-73
2022/09/08 10:23:34;;;;;;;0.90;0.73;;;27.50;98.30;;;;;;5020222;28;20479;-73
2022/09/08 10:26:26;;;;;;;0.80;0.73;;;27.10;97.60;;;;;;5023191;28;20526;-73
2022/09/08 10:29:35;;;;;;;2.13;0.90;;;26.30;98.10;;;;;;5021271;28;20494;-73
2022/09/08 10:32:22;;;;;;;1.97;0.80;;;25.60;98.40;;;;;;5027222;28;20456;-73
2022/09/08 10:35:25;;;;;;;0.90;0.80;;;25.00;99.50;;;;;;5024887;28;20462;-73
2022/09/08 10:38:21;;;;;;;1.57;0.93;;;24.50;99.90;;;;;;4997627;28;20491;-74
2022/09/08 10:41:15;;;;;;;2.43;1.20;;;24.00;99.90;;;;;;5016717;28;20465;-72
2022/09/08 10:44:11;;;;;;;2.63;0.90;;;23.60;99.90;;;;;;5022349;28;20468;-73
2022/09/08 10:47:08;;;;;;;0.87;0.70;;;23.50;99.90;;;;;;5025341;28;20541;-73
2022/09/08 10:49:56;;;;;;;2.10;1.30;;;23.60;99.90;;;;;;5022116;28;20546;-72
2022/09/08 10:52:31;;;;;;;1.97;1.77;;;23.80;99.90;;;;;;5026274;28;20463;-73
2022/09/08 10:55:30;;;;;;;1.60;1.30;;;23.90;99.90;;;;;;5023258;28;20531;-73
2022/09/08 10:58:39;;;;;;;2.03;1.10;;;24.20;99.90;;;;;;5023025;28;21034;-73
2022/09/08 11:01:27;;;;;;;1.83;1.37;;;24.20;99.90;;;;;;5025456;28;20472;-73
2022/09/08 11:04:23;;;;;;;1.33;1.20;;;24.00;99.90;;;;;;5020614;28;20464;-74
2022/09/08 11:07:14;;;;;;;2.03;1.10;;;23.70;99.90;;;;;;5025820;28;20483;-74
2022/09/08 11:09:55;;;;;;;1.47;1.00;;;23.30;99.90;;;;;;5025820;28;20578;-74
2022/09/08 11:12:38;;;;;;;2.10;0.97;;;23.00;99.90;;;;;;5021878;28;20552;-75
2022/09/08 11:15:52;;;;;;;1.30;1.00;;;22.70;99.90;;;;;;5015837;28;20447;-74
2022/09/08 11:18:27;;;;;;;0.90;0.83;;;22.50;99.90;;;;;;5011166;28;20498;-74
2022/09/08 11:21:00;;;;;;;1.43;0.80;;;22.50;99.90;;;;;;5001754;28;21004;-74
2022/09/08 11:23:43;;;;;;;1.53;1.00;;;23.00;99.90;;;;;;5012966;28;20484;-74
2022/09/08 11:26:35;;;;;;;1.40;0.87;;;23.50;99.90;;;;;;5019686;28;20461;-74
2022/09/08 11:29:09;;;;;;;2.20;0.93;;;24.00;99.90;;;;;;5014184;28;20460;-74
2022/09/08 11:31:47;;;;;;;0.87;0.70;;;24.30;99.90;;;;;;5013515;28;20618;-73
2022/09/08 11:34:42;;;;;;;1.80;1.00;;;24.30;99.90;;;;;;5019492;28;20597;-73
2022/09/08 11:37:38;;;;;;;2.27;1.03;;;24.00;99.90;;;;;;5013122;28;20855;-73
2022/09/08 11:40:27;;;;;;;1.43;1.00;;;23.60;99.90;;;;;;5021782;28;20484;-73
2022/09/08 11:43:14;;;;;;;1.60;1.07;;;23.10;99.90;;;;;;5018229;28;21082;-73
2022/09/08 11:45:57;;;;;;;2.00;1.20;;;23.20;99.90;;;;;;5015198;28;20553;-74
2022/09/08 11:48:46;;;;;;;2.07;0.90;;;23.40;99.90;;;;;;5024753;28;20537;-74
2022/09/08 11:51:32;;;;;;;1.37;0.90;;;23.60;99.90;;;;;;5016694;28;20494;-73
2022/09/08 11:54:13;;;;;;;1.63;1.00;;;23.60;99.90;;;;;;5012648;28;21223;-73
2022/09/08 11:57:15;;;;;;;3.07;1.00;;;23.90;99.90;;;;;;5026201;28;21232;-74
2022/09/08 12:00:14;;;;;;;2.07;1.00;;;24.60;99.90;;;;;;5014833;28;20498;-73
2022/09/08 12:03:11;;;;;;;3.33;1.40;;;25.40;99.90;;;;;;5014968;28;20452;-74
2022/09/08 12:06:05;;;;;;;1.60;0.80;;;26.30;98.40;;;;;;5018756;28;20792;-74
2022/09/08 12:09:06;;;;;;;2.60;1.00;;;27.10;95.90;;;;;;5026116;28;20586;-74
2022/09/08 12:12:11;;;;;;;2.07;1.00;;;27.40;95.30;;;;;;5027077;28;20454;-74
2022/09/08 12:14:50;;;;;;;2.00;0.90;;;27.20;93.20;;;;;;5014519;28;20505;-74
2022/09/08 12:17:27;;;;;;;2.80;1.20;;;26.80;93.60;;;;;;5028078;28;20515;-74
2022/09/08 12:20:15;;;;;;;3.03;0.90;;;26.70;92.90;;;;;;5021782;28;20459;-73
2022/09/08 12:23:02;;;;;;;1.70;1.00;;;26.40;93.00;;;;;;5023429;28;21083;-73
2022/09/08 12:25:49;;;;;;;3.13;1.10;;;25.80;93.70;;;;;;5019521;28;20933;-73
2022/09/08 12:28:31;;;;;;;1.37;1.10;;;25.50;93.90;;;;;;5028256;28;20480;-79
2022/09/08 12:31:20;;;;;;;1.50;0.80;;;25.80;94.10;;;;;;5020720;28;20778;-73
2022/09/08 12:34:15;;;;;;;1.20;0.80;;;26.10;92.40;;;;;;5026173;28;20463;-73
2022/09/08 12:36:49;;;;;;;1.77;1.20;;;25.80;93.30;;;;;;5019614;28;20578;-72
2022/09/08 12:39:39;;;;;;;3.37;1.10;;;25.90;92.90;;;;;;5029738;28;20554;-73
2022/09/08 12:42:38;;;;;;;1.43;0.90;;;25.80;92.60;;;;;;5027909;28;20869;-73
2022/09/08 12:45:21;;;;;;;2.30;1.20;;;25.40;92.80;;;;;;5030622;28;20524;-73
2022/09/08 12:48:01;;;;;;;2.53;1.00;;;25.40;92.50;;;;;;5030799;28;20490;-75
2022/09/08 12:50:45;;;;;;;1.40;0.93;;;25.30;92.70;;;;;;5029682;28;20541;-72
2022/09/08 12:53:41;;;;;;;2.23;1.00;;;25.00;92.60;;;;;;5017886;28;20538;-73
2022/09/08 12:56:19;;;;;;;1.90;1.00;;;24.80;93.00;;;;;;5023583;28;20482;-72
2022/09/08 12:59:00;;;;;;;1.87;1.17;;;24.60;93.20;;;;;;5021924;28;21305;-73
2022/09/08 13:01:37;;;;;;;2.97;1.00;;;24.70;94.10;;;;;;5026387;28;20459;-73
2022/09/08 13:04:36;;;;;;;1.40;0.70;;;25.20;92.90;;;;;;5027048;28;20520;-73
2022/09/08 13:07:15;;;;;;;2.60;0.90;;;25.30;92.60;;;;;;4967807;28;20558;-73
2022/09/08 13:09:54;;;;;;;2.13;0.90;;;25.70;92.40;;;;;;5004676;28;20488;-73
2022/09/08 13:12:47;;;;;;;1.87;0.90;;;26.30;91.10;;;;;;5004930;28;20493;-72
2022/09/08 13:15:25;;;;;;;2.60;0.90;;;26.00;90.90;;;;;;5004906;28;20456;-72
2022/09/08 13:18:02;;;;;;;2.40;1.00;;;25.30;91.20;;;;;;5006166;28;20513;-72
2022/09/08 13:20:38;;;;;;;1.87;1.20;;;24.80;92.10;;;;;;5009359;28;20601;-73
2022/09/08 13:23:23;;;;;;;1.43;0.80;;;24.50;92.70;;;;;;5005515;28;20540;-72
2022/09/08 13:26:00;;;;;;;1.47;0.87;;;24.30;92.60;;;;;;4980659;28;20457;-72
2022/09/08 13:28:46;;;;;;;1.80;1.17;;;24.30;92.80;;;;;;5001382;28;20484;-72
2022/09/08 13:31:22;;;;;;;1.43;1.00;;;24.60;93.00;;;;;;4997234;28;20505;-72
2022/09/08 13:34:07;;;;;;;2.10;0.90;;;25.10;92.60;;;;;;4995491;28;20539;-72
2022/09/08 13:36:58;;;;;;;1.73;0.93;;;25.50;90.90;;;;;;4998219;28;20485;-72
2022/09/08 13:39:47;;;;;;;1.87;1.30;;;25.60;90.70;;;;;;5001919;28;20484;-72
2022/09/08 13:42:29;;;;;;;1.40;0.80;;;25.40;91.10;;;;;;4996882;28;20546;-74
2022/09/08 13:45:21;;;;;;;1.70;0.93;;;25.10;91.20;;;;;;5002750;28;20473;-73
2022/09/08 13:48:09;;;;;;;2.40;1.30;;;24.60;91.80;;;;;;4991151;28;20520;-73